Aérodrome :
LOGIN :

S'inscrire | Disclaimer

   EN    FR    IT 

 










Légende :    VFR   VFR Marginal   IFR   IFR Intensif   IFR Très Intensif
Visi : 
Plafond : 
>= 8 km
>= 3000ft
5 à 8 km
1000 à 3000 ft
1500m à 5 km
500 à 1000 ft
800 à 1500m
200 à 500 ft
< 800m
< 200 ft
Symboles :   Orages  Brouillard  Fortes neiges  Fortes précipitations  Vent > 20 kt
SIGMETs :   Divers  Orages  Givrage  Turbulence  Onde Orograph.  Cendres Volcan.






- Altitude de l'aérodrome : 160 ft
- Code IATA : FMO


EDDG - Münster Osnabrück Int.

DERNIER METAR :
  • 250650Z VRB01KT 5000 BR NSC M02/M03 Q1001 TEMPO 4000

METARs EXPIRÉS :
  • 250620Z VRB01KT 7000 NSC M02/M02 Q1000 NOSIG
  • 250550Z 04001KT 7000 NSC M02/M02 Q1000 NOSIG
  • 250520Z 03002KT 7000 NSC M02/M02 Q1000 NOSIG
  • 250450Z VRB02KT 8000 NSC M02/M03 Q1000 NOSIG
  • 250420Z VRB01KT 8000 NSC M02/M02 Q0999 NOSIG

TAF TAF EDDG
Valide du 25 à 06h jusqu'au 26 à 06h UTC


250500Z 2506/2606 VRB03KT 8000 NSC
TEMPO 2506/2509 4000 BR
BECMG 2511/2514 26005KT
BECMG 2517/2520 20009KT
TEMPO 2520/2601 3000 SHSNRA BKN008CB
TEMPO 2601/2606 26015G25KT 4000 SHRASN BKN005CB



MET'MAP, la Météo Aéronautique d'un coup d'oeil ! - Copyright ORBIFLY Décembre 2007 - Disclaimer

ORBIFLY MET'MAP TEAM :

Programmation & Développement : Alexandra Zaïnal
Sur une idée originale de : Baudouin d'Aumeries
Assistance à la programmation : Marc-Olivier Méhu
Soutien technique & logistique : Manuel Goepfert

Contact : metmap@orbifly.com




SOURCES & CREDITS :

   NOAA